createdAt,value
2019-06-26T00:01:46.004Z,9.70
2019-06-26T00:04:13.546Z,9.53
2019-06-26T00:06:42.820Z,9.98
2019-06-26T00:09:10.480Z,11.05
2019-06-26T00:11:38.722Z,10.38
2019-06-26T00:14:38.875Z,11.03
2019-06-26T00:17:07.365Z,11.08
2019-06-26T00:19:34.842Z,10.70
2019-06-26T00:22:07.067Z,10.43
2019-06-26T00:24:34.510Z,11.38
2019-06-26T00:27:02.038Z,10.95
2019-06-26T00:29:29.564Z,9.65
2019-06-26T00:31:57.102Z,10.45
2019-06-26T00:34:24.671Z,11.22
2019-06-26T00:36:52.177Z,11.18
2019-06-26T00:39:19.705Z,10.98
2019-06-26T00:41:47.828Z,10.32
2019-06-26T00:44:15.743Z,10.90
2019-06-26T00:46:43.251Z,10.50
2019-06-26T00:49:10.838Z,10.40
2019-06-26T00:51:38.313Z,9.88
2019-06-26T00:54:05.790Z,10.40
2019-06-26T00:56:33.305Z,10.85
2019-06-26T00:59:00.822Z,10.32
2019-06-26T01:01:28.288Z,11.10
2019-06-26T01:03:59.100Z,10.68
2019-06-26T01:06:58.380Z,10.25
2019-06-26T01:09:25.839Z,9.93
2019-06-26T01:11:53.373Z,11.25
2019-06-26T01:14:20.835Z,9.60
2019-06-26T01:16:48.356Z,10.40
2019-06-26T01:19:15.841Z,9.73
2019-06-26T01:21:43.592Z,10.28
2019-06-26T01:24:11.021Z,10.60
2019-06-26T01:26:38.662Z,10.72
2019-06-26T01:29:06.137Z,10.35
2019-06-26T01:31:33.681Z,11.35
2019-06-26T01:34:01.305Z,10.78
2019-06-26T01:36:28.763Z,10.88
2019-06-26T01:38:56.237Z,10.60
2019-06-26T01:41:23.739Z,11.22
2019-06-26T01:43:51.212Z,11.20
2019-06-26T01:46:18.852Z,11.57
2019-06-26T01:48:46.361Z,11.50
2019-06-26T01:51:13.853Z,11.70
2019-06-26T01:53:41.319Z,11.93
2019-06-26T01:56:09.072Z,11.20
2019-06-26T01:58:37.027Z,11.97
2019-06-26T02:01:04.482Z,12.33
2019-06-26T02:03:31.993Z,12.73
2019-06-26T02:05:59.553Z,12.82
2019-06-26T02:08:27.035Z,13.55
2019-06-26T02:10:54.501Z,12.90
2019-06-26T02:13:22.052Z,13.85
2019-06-26T02:15:49.593Z,13.60
2019-06-26T02:18:51.841Z,13.98
2019-06-26T02:21:19.354Z,13.90
2019-06-26T02:23:46.993Z,13.50
2019-06-26T02:26:14.539Z,13.68
2019-06-26T02:28:42.032Z,14.23
2019-06-26T02:31:10.278Z,13.13
2019-06-26T02:33:37.923Z,13.25
2019-06-26T02:36:05.500Z,13.53
2019-06-26T02:38:33.091Z,14.25
2019-06-26T02:41:00.588Z,16.23
2019-06-26T02:43:28.169Z,15.15
2019-06-26T02:45:55.724Z,14.47
2019-06-26T02:48:23.233Z,14.20
2019-06-26T02:50:50.826Z,14.50
2019-06-26T02:53:18.288Z,14.25
2019-06-26T02:55:45.746Z,12.63
2019-06-26T02:58:13.314Z,13.90
2019-06-26T03:00:40.806Z,12.65
2019-06-26T03:03:09.826Z,13.85
2019-06-26T03:05:37.484Z,13.22
2019-06-26T03:08:05.125Z,13.45
2019-06-26T03:10:32.605Z,13.93
2019-06-26T03:13:00.077Z,14.90
2019-06-26T03:15:27.605Z,14.38
2019-06-26T03:17:55.936Z,13.43
2019-06-26T03:20:27.235Z,12.65
2019-06-26T03:22:54.885Z,12.03
2019-06-26T03:25:22.475Z,13.13
2019-06-26T03:27:49.958Z,13.43
2019-06-26T03:30:17.474Z,14.90
2019-06-26T03:32:44.963Z,13.00
2019-06-26T03:35:12.525Z,14.05
2019-06-26T03:37:39.959Z,12.55
2019-06-26T03:40:07.853Z,12.78
2019-06-26T03:42:35.348Z,12.73
2019-06-26T03:45:03.917Z,12.63
2019-06-26T03:47:31.569Z,11.93
2019-06-26T03:49:59.150Z,11.68
2019-06-26T03:52:26.638Z,12.18
2019-06-26T03:54:54.164Z,10.95
2019-06-26T03:57:21.610Z,11.70
2019-06-26T03:59:52.993Z,10.95
2019-06-26T04:02:22.349Z,9.78
2019-06-26T04:04:50.849Z,9.93
2019-06-26T04:07:19.456Z,9.43
2019-06-26T04:09:46.965Z,9.50
2019-06-26T04:12:14.455Z,9.20
2019-06-26T04:14:42.009Z,9.78
2019-06-26T04:17:09.586Z,8.93
2019-06-26T04:19:37.244Z,8.68
2019-06-26T04:22:04.778Z,8.38
2019-06-26T04:24:33.414Z,8.03
2019-06-26T04:27:00.908Z,8.73
2019-06-26T04:29:28.581Z,8.58
2019-06-26T04:31:56.068Z,7.90
2019-06-26T04:34:23.542Z,8.30
2019-06-26T04:36:51.197Z,8.38
2019-06-26T04:39:18.688Z,7.95
2019-06-26T04:41:46.626Z,8.30
2019-06-26T04:44:14.230Z,7.60
2019-06-26T04:46:41.748Z,10.82
2019-06-26T04:49:09.374Z,9.63
2019-06-26T04:51:37.024Z,8.68
2019-06-26T04:54:04.709Z,7.60
2019-06-26T04:56:32.232Z,8.35
2019-06-26T04:58:59.820Z,7.20
2019-06-26T05:01:29.475Z,7.35
2019-06-26T05:03:57.188Z,7.92
2019-06-26T05:06:24.849Z,8.03
2019-06-26T05:08:52.309Z,7.90
2019-06-26T05:11:19.830Z,7.45
2019-06-26T05:13:48.514Z,7.15
2019-06-26T05:16:20.168Z,8.10
2019-06-26T05:18:47.048Z,7.67
2019-06-26T05:21:14.529Z,7.42
2019-06-26T05:23:42.068Z,6.87
2019-06-26T05:26:09.436Z,6.87
2019-06-26T05:28:36.855Z,6.95
2019-06-26T05:31:04.202Z,6.83
2019-06-26T05:33:31.628Z,6.00
2019-06-26T05:35:59.348Z,6.85
2019-06-26T05:38:26.725Z,6.83
2019-06-26T05:40:54.080Z,6.15
2019-06-26T05:43:21.375Z,6.60
2019-06-26T05:45:48.763Z,7.12
2019-06-26T05:48:16.173Z,8.20
2019-06-26T05:50:43.502Z,6.65
2019-06-26T05:53:11.166Z,7.00
2019-06-26T05:55:38.514Z,6.90
2019-06-26T05:58:06.028Z,7.12
2019-06-26T06:00:33.749Z,7.17
2019-06-26T06:03:02.366Z,7.03
2019-06-26T06:05:32.128Z,6.85
2019-06-26T06:07:59.512Z,6.87
2019-06-26T06:10:28.671Z,6.75
2019-06-26T06:12:56.023Z,6.70
2019-06-26T06:15:23.384Z,7.10
2019-06-26T06:17:50.682Z,7.03
2019-06-26T06:20:27.801Z,6.75
2019-06-26T06:22:55.466Z,7.20
2019-06-26T06:25:22.842Z,7.47
2019-06-26T06:27:50.258Z,6.70
2019-06-26T06:30:17.693Z,7.70
2019-06-26T06:32:46.493Z,7.28
2019-06-26T06:35:13.978Z,7.62
2019-06-26T06:37:41.567Z,7.72
2019-06-26T06:40:09.486Z,7.53
2019-06-26T06:42:36.792Z,7.67
2019-06-26T06:45:05.228Z,7.97
2019-06-26T06:47:32.905Z,8.33
2019-06-26T06:50:00.234Z,8.15
2019-06-26T06:52:28.056Z,8.08
2019-06-26T06:54:55.426Z,7.80
2019-06-26T06:57:25.051Z,7.72
2019-06-26T06:59:54.496Z,7.53
2019-06-26T07:02:21.898Z,7.12
2019-06-26T07:04:49.238Z,7.45
2019-06-26T07:07:16.588Z,7.62
2019-06-26T07:09:44.286Z,8.00
2019-06-26T07:12:11.620Z,7.40
2019-06-26T07:14:39.016Z,7.80
2019-06-26T07:17:20.057Z,7.05
2019-06-26T07:19:36.017Z,7.28
2019-06-26T07:22:06.978Z,7.37
2019-06-26T07:24:32.903Z,6.75
2019-06-26T07:27:00.371Z,7.00
2019-06-26T07:29:29.897Z,7.28
2019-06-26T07:31:57.187Z,6.58
2019-06-26T07:34:25.867Z,7.05
2019-06-26T07:36:53.386Z,7.22
2019-06-26T07:39:20.830Z,6.90
2019-06-26T07:41:48.185Z,7.28
2019-06-26T07:44:16.185Z,6.55
2019-06-26T07:46:43.724Z,6.67
2019-06-26T07:49:10.973Z,6.60
2019-06-26T07:51:39.363Z,7.28
2019-06-26T07:54:07.130Z,7.10
2019-06-26T07:56:34.584Z,7.00
2019-06-26T07:59:04.265Z,7.50
2019-06-26T08:01:32.251Z,7.42
2019-06-26T08:04:00.140Z,7.10
2019-06-26T08:06:27.458Z,7.53
2019-06-26T08:08:54.844Z,7.70
2019-06-26T08:11:22.327Z,7.75
2019-06-26T08:13:50.383Z,7.25
2019-06-26T08:16:18.478Z,7.42
2019-06-26T08:18:45.989Z,7.55
2019-06-26T08:21:13.576Z,6.75
2019-06-26T08:23:41.106Z,7.28
2019-06-26T08:26:08.634Z,6.90
2019-06-26T08:28:36.162Z,6.90
2019-06-26T08:31:04.841Z,7.08
2019-06-26T08:33:32.458Z,6.97
2019-06-26T08:35:59.961Z,6.95
2019-06-26T08:38:27.512Z,7.50
2019-06-26T08:40:55.232Z,6.95
2019-06-26T08:43:22.810Z,7.37
2019-06-26T08:45:50.644Z,7.75
2019-06-26T08:48:37.897Z,7.60
2019-06-26T08:50:47.777Z,7.65
2019-06-26T08:53:15.409Z,7.90
2019-06-26T08:55:49.180Z,8.10
2019-06-26T08:58:16.796Z,7.80
2019-06-26T09:00:44.336Z,8.58
2019-06-26T09:03:12.206Z,7.67
2019-06-26T09:05:47.960Z,8.13
2019-06-26T09:08:10.291Z,9.23
2019-06-26T09:10:38.558Z,8.48
2019-06-26T09:13:07.254Z,8.08
2019-06-26T09:15:35.047Z,8.40
2019-06-26T09:18:04.586Z,8.40
2019-06-26T09:20:38.579Z,8.38
2019-06-26T09:23:09.432Z,8.03
2019-06-26T09:25:36.894Z,8.30
2019-06-26T09:28:04.835Z,8.18
2019-06-26T09:30:55.874Z,9.63
2019-06-26T09:33:23.515Z,8.68
2019-06-26T09:35:55.134Z,8.40
2019-06-26T09:38:22.852Z,8.58
2019-06-26T09:40:50.604Z,8.83
2019-06-26T09:43:18.961Z,8.30
2019-06-26T09:45:46.486Z,8.83
2019-06-26T09:48:15.032Z,8.75
2019-06-26T09:50:42.647Z,8.43
2019-06-26T09:53:10.220Z,9.00
2019-06-26T09:55:44.794Z,8.20
2019-06-26T09:58:13.557Z,8.40
2019-06-26T10:00:41.279Z,9.10
2019-06-26T10:03:09.992Z,8.50
2019-06-26T10:05:37.483Z,9.10
2019-06-26T10:08:04.975Z,9.03
2019-06-26T10:10:32.444Z,8.73
2019-06-26T10:13:00.038Z,8.80
2019-06-26T10:15:30.623Z,8.75
2019-06-26T10:17:58.146Z,8.93
2019-06-26T10:20:25.713Z,9.00
2019-06-26T10:22:53.258Z,9.25
2019-06-26T10:25:20.765Z,9.33
2019-06-26T10:27:48.319Z,9.08
2019-06-26T10:30:16.062Z,8.78
2019-06-26T10:32:43.672Z,8.98
2019-06-26T10:35:11.444Z,8.48
2019-06-26T10:37:38.975Z,8.30
2019-06-26T10:40:08.733Z,8.20
2019-06-26T10:42:37.443Z,8.35
2019-06-26T10:45:05.491Z,9.03
2019-06-26T10:47:33.094Z,9.55
2019-06-26T10:50:01.087Z,8.88
2019-06-26T10:52:28.599Z,8.73
2019-06-26T10:54:57.103Z,8.73
2019-06-26T10:57:24.735Z,8.63
2019-06-26T10:59:56.501Z,8.78
2019-06-26T11:02:26.162Z,9.23
2019-06-26T11:04:53.695Z,9.13
2019-06-26T11:07:21.212Z,9.60
2019-06-26T11:09:48.750Z,9.78
2019-06-26T11:12:16.259Z,9.20
2019-06-26T11:14:43.777Z,8.95
2019-06-26T11:17:11.245Z,8.80
2019-06-26T11:19:43.900Z,8.58
2019-06-26T11:22:08.404Z,9.63
2019-06-26T11:24:35.905Z,9.18
2019-06-26T11:27:03.502Z,8.13
2019-06-26T11:29:31.064Z,8.18
2019-06-26T11:31:58.514Z,8.80
2019-06-26T11:34:28.108Z,8.75
2019-06-26T11:37:03.840Z,8.88
2019-06-26T11:39:25.301Z,9.10
2019-06-26T11:41:52.751Z,9.75
2019-06-26T11:44:20.203Z,8.88
2019-06-26T11:46:48.156Z,9.33
2019-06-26T11:49:15.734Z,9.28
2019-06-26T11:51:43.239Z,9.83
2019-06-26T11:54:10.744Z,9.48
2019-06-26T11:56:38.418Z,8.13
2019-06-26T11:59:07.174Z,8.50
2019-06-26T12:01:34.736Z,8.60
2019-06-26T12:04:05.706Z,7.78
2019-06-26T12:06:33.160Z,7.20
2019-06-26T12:09:01.824Z,7.15
2019-06-26T12:11:31.252Z,7.47
2019-06-26T12:13:58.823Z,7.20
2019-06-26T12:16:26.421Z,7.08
2019-06-26T12:18:54.116Z,6.40
2019-06-26T12:21:22.686Z,6.50
2019-06-26T12:23:50.240Z,6.53
2019-06-26T12:26:17.694Z,5.58
2019-06-26T12:28:46.284Z,5.78
2019-06-26T12:31:13.877Z,6.78
2019-06-26T12:33:41.469Z,8.85
2019-06-26T12:36:09.631Z,5.55
2019-06-26T12:38:39.390Z,6.85
2019-06-26T12:41:06.995Z,6.50
2019-06-26T12:43:34.534Z,6.00
2019-06-26T12:46:01.914Z,6.28
2019-06-26T12:48:29.403Z,6.58
2019-06-26T12:50:58.164Z,6.08
2019-06-26T12:53:25.611Z,5.75
2019-06-26T12:55:53.068Z,6.20
2019-06-26T12:58:20.624Z,5.92
2019-06-26T13:00:49.243Z,6.30
2019-06-26T13:03:16.970Z,6.30
2019-06-26T13:05:44.452Z,6.58
2019-06-26T13:08:11.911Z,6.70
2019-06-26T13:10:49.409Z,5.95
2019-06-26T13:13:10.472Z,6.55
2019-06-26T13:15:38.344Z,6.70
2019-06-26T13:18:06.428Z,6.70
2019-06-26T13:20:47.990Z,7.00
2019-06-26T13:23:04.739Z,6.72
2019-06-26T13:25:32.219Z,6.50
2019-06-26T13:27:59.704Z,6.70
2019-06-26T13:30:34.893Z,7.05
2019-06-26T13:33:02.585Z,7.20
2019-06-26T13:35:30.115Z,6.85
2019-06-26T13:37:57.655Z,5.97
2019-06-26T13:40:25.234Z,6.95
2019-06-26T13:42:52.779Z,6.90
2019-06-26T13:45:21.389Z,6.83
2019-06-26T13:47:48.906Z,6.33
2019-06-26T13:50:16.725Z,6.95
2019-06-26T13:52:44.248Z,6.58
2019-06-26T13:55:11.802Z,6.72
2019-06-26T13:57:39.371Z,5.83
2019-06-26T14:00:13.969Z,5.95
2019-06-26T14:02:41.584Z,5.53
2019-06-26T14:05:09.640Z,5.60
2019-06-26T14:07:37.162Z,5.55
2019-06-26T14:10:07.947Z,6.03
2019-06-26T14:15:02.824Z,5.80
2019-06-26T14:17:30.443Z,6.03
2019-06-26T14:19:58.024Z,6.12
2019-06-26T14:22:25.631Z,6.17
2019-06-26T14:24:54.332Z,6.28
2019-06-26T14:27:24.958Z,7.15
2019-06-26T14:29:52.558Z,6.80
2019-06-26T14:32:20.116Z,6.37
2019-06-26T14:34:47.590Z,6.55
2019-06-26T14:37:15.152Z,6.53
2019-06-26T14:39:42.633Z,6.95
2019-06-26T14:42:10.152Z,7.22
2019-06-26T14:44:37.650Z,7.50
2019-06-26T14:47:05.253Z,7.25
2019-06-26T14:49:33.474Z,7.60
2019-06-26T14:52:01.156Z,7.12
2019-06-26T14:54:28.814Z,7.50
2019-06-26T14:56:56.386Z,6.97
2019-06-26T14:59:23.939Z,6.90
2019-06-26T15:01:53.406Z,6.95
2019-06-26T15:04:21.054Z,6.72
2019-06-26T15:07:11.810Z,6.90
2019-06-26T15:09:37.093Z,7.05
2019-06-26T15:12:04.775Z,6.30
2019-06-26T15:14:33.369Z,6.58
2019-06-26T15:17:00.866Z,6.03
2019-06-26T15:19:28.804Z,6.50
2019-06-26T15:21:58.843Z,5.90
2019-06-26T15:24:25.638Z,6.12
2019-06-26T15:26:53.101Z,6.53
2019-06-26T15:29:20.708Z,6.40
2019-06-26T15:31:48.221Z,5.85
2019-06-26T15:34:15.765Z,6.05
2019-06-26T15:36:43.470Z,5.85
2019-06-26T15:39:11.517Z,5.97
2019-06-26T15:41:39.080Z,5.40
2019-06-26T15:44:06.722Z,6.33
2019-06-26T15:46:34.364Z,5.85
2019-06-26T15:49:01.965Z,5.87
2019-06-26T15:51:29.562Z,6.30
2019-06-26T15:53:59.983Z,5.78
2019-06-26T15:56:26.437Z,6.67
2019-06-26T15:58:54.059Z,5.95
2019-06-26T16:01:21.629Z,6.42
2019-06-26T16:03:49.146Z,6.55
2019-06-26T16:06:16.811Z,6.00
2019-06-26T16:08:44.366Z,6.33
2019-06-26T16:11:12.315Z,6.30
2019-06-26T16:13:39.983Z,5.87
2019-06-26T16:16:07.520Z,6.10
2019-06-26T16:18:42.926Z,6.10
2019-06-26T16:21:10.223Z,6.20
2019-06-26T16:23:37.717Z,5.80
2019-06-26T16:26:05.287Z,6.53
2019-06-26T16:28:32.857Z,5.65
2019-06-26T16:31:00.822Z,5.72
2019-06-26T16:33:28.441Z,5.75
2019-06-26T16:35:56.048Z,5.58
2019-06-26T16:38:23.551Z,6.08
2019-06-26T16:40:51.064Z,6.08
2019-06-26T16:43:19.520Z,5.72
2019-06-26T16:45:48.153Z,5.72
2019-06-26T16:48:16.614Z,5.80
2019-06-26T16:50:47.402Z,6.28
2019-06-26T16:53:24.012Z,6.12
2019-06-26T16:56:01.346Z,5.90
2019-06-26T16:58:31.442Z,6.40
2019-06-26T17:01:09.912Z,6.30
2019-06-26T17:03:46.652Z,5.50
2019-06-26T17:06:17.189Z,5.65
2019-06-26T17:08:52.418Z,5.53
2019-06-26T17:11:21.476Z,5.42
2019-06-26T17:13:58.928Z,5.42
2019-06-26T17:16:26.677Z,6.37
2019-06-26T17:19:02.153Z,5.85
2019-06-26T17:21:39.313Z,5.72
2019-06-26T17:24:08.977Z,6.10
2019-06-26T17:26:36.541Z,6.35
2019-06-26T17:29:04.139Z,6.28
2019-06-26T17:31:31.708Z,5.70
2019-06-26T17:33:59.379Z,5.15
2019-06-26T17:36:28.856Z,5.28
2019-06-26T17:38:57.125Z,4.90
2019-06-26T17:41:24.649Z,5.78
2019-06-26T17:43:54.437Z,5.35
2019-06-26T17:46:24.597Z,5.10
2019-06-26T17:48:53.618Z,4.87
2019-06-26T17:51:24.268Z,4.55
2019-06-26T18:02:27.144Z,4.65
2019-06-26T18:04:54.312Z,4.50
2019-06-26T18:07:27.392Z,5.37
2019-06-26T18:09:54.980Z,5.20
2019-06-26T18:12:22.679Z,4.95
2019-06-26T18:14:50.337Z,5.08
2019-06-26T18:17:22.128Z,4.65
2019-06-26T18:19:47.321Z,4.60
2019-06-26T18:22:17.321Z,4.70
2019-06-26T18:24:44.798Z,5.00
2019-06-26T18:27:14.263Z,4.65
2019-06-26T18:29:41.764Z,5.12
2019-06-26T18:32:09.338Z,5.50
2019-06-26T18:34:36.897Z,5.47
2019-06-26T18:37:04.479Z,4.80
2019-06-26T18:39:32.007Z,5.00
2019-06-26T18:41:59.501Z,5.20
2019-06-26T18:44:26.969Z,4.72
2019-06-26T18:46:54.407Z,4.53
2019-06-26T18:49:21.964Z,4.58
2019-06-26T18:51:49.524Z,4.50
2019-06-26T18:54:16.979Z,4.62
2019-06-26T18:56:44.678Z,4.45
2019-06-26T18:59:12.892Z,4.55
2019-06-26T19:01:40.477Z,4.30
2019-06-26T19:04:08.293Z,4.62
2019-06-26T19:06:35.778Z,4.55
2019-06-26T19:09:05.352Z,4.62
2019-06-26T19:11:34.381Z,5.00
2019-06-26T19:14:01.991Z,4.42
2019-06-26T19:16:29.499Z,4.65
2019-06-26T19:18:58.772Z,4.70
2019-06-26T19:21:26.717Z,4.58
2019-06-26T19:24:09.058Z,5.10
2019-06-26T19:26:23.655Z,4.87
2019-06-26T19:28:51.130Z,5.35
2019-06-26T19:31:19.381Z,5.37
2019-06-26T19:33:46.940Z,5.28
2019-06-26T19:36:14.387Z,4.75
2019-06-26T19:38:42.110Z,5.83
2019-06-26T19:41:09.604Z,5.55
2019-06-26T19:43:37.079Z,6.08
2019-06-26T19:46:05.929Z,5.72
2019-06-26T19:48:35.243Z,5.40
2019-06-26T19:51:05.539Z,5.72
2019-06-26T19:56:00.077Z,5.53
2019-06-26T19:58:29.075Z,5.72
2019-06-26T20:00:56.551Z,5.35
2019-06-26T20:03:24.209Z,5.65
2019-06-26T20:05:51.767Z,5.40
2019-06-26T20:08:19.259Z,5.55
2019-06-26T20:10:46.745Z,5.60
2019-06-26T20:13:14.565Z,5.50
2019-06-26T20:15:43.154Z,5.75
2019-06-26T20:18:10.703Z,5.87
2019-06-26T20:20:38.263Z,6.03
2019-06-26T20:23:05.821Z,5.72
2019-06-26T20:25:33.291Z,6.08
2019-06-26T20:28:02.266Z,5.95
2019-06-26T20:30:31.838Z,6.08
2019-06-26T20:32:59.316Z,6.67
2019-06-26T20:35:26.988Z,6.30
2019-06-26T20:37:54.562Z,6.17
2019-06-26T20:40:22.252Z,6.53
2019-06-26T20:42:49.758Z,7.00
2019-06-26T20:45:17.311Z,6.90
2019-06-26T20:47:44.933Z,7.47
2019-06-26T20:50:12.599Z,6.70
2019-06-26T20:52:40.111Z,8.10
2019-06-26T20:55:07.693Z,7.45
2019-06-26T20:57:35.220Z,7.47
2019-06-26T21:00:04.586Z,8.05
2019-06-26T21:02:33.962Z,7.50
2019-06-26T21:05:01.607Z,7.95
2019-06-26T21:07:29.193Z,6.62
2019-06-26T21:09:58.383Z,7.12
2019-06-26T21:12:25.898Z,8.15
2019-06-26T21:14:53.274Z,8.25
2019-06-26T21:17:20.817Z,8.08
2019-06-26T21:19:48.466Z,8.65
2019-06-26T21:22:15.956Z,8.05
2019-06-26T21:24:43.528Z,8.95
2019-06-26T21:27:11.055Z,8.35
2019-06-26T21:29:38.657Z,8.75
2019-06-26T21:32:06.165Z,8.20
2019-06-26T21:34:33.654Z,8.30
2019-06-26T21:37:01.179Z,8.88
2019-06-26T21:39:29.016Z,8.93
2019-06-26T21:41:56.630Z,8.05
2019-06-26T21:44:24.116Z,8.90
2019-06-26T21:46:51.659Z,8.95
2019-06-26T21:49:19.925Z,9.43
2019-06-26T21:51:48.748Z,8.33
2019-06-26T21:54:16.351Z,7.85
2019-06-26T21:57:08.263Z,7.33
2019-06-26T21:59:53.412Z,6.95
2019-06-26T22:02:39.530Z,6.30
2019-06-26T22:05:08.673Z,6.67
2019-06-26T22:07:40.678Z,6.42
2019-06-26T22:10:16.038Z,5.78
2019-06-26T22:12:44.701Z,6.40
2019-06-26T22:15:14.572Z,6.62
2019-06-26T22:17:42.402Z,6.72
2019-06-26T22:20:12.705Z,6.40
2019-06-26T22:22:39.580Z,6.50
2019-06-26T22:25:07.658Z,6.37
2019-06-26T22:27:35.192Z,6.55
2019-06-26T22:30:02.808Z,5.78
2019-06-26T22:32:32.750Z,5.85
2019-06-26T22:35:00.244Z,4.95
2019-06-26T22:37:27.710Z,4.67
2019-06-26T22:39:55.184Z,5.47
2019-06-26T22:42:22.793Z,4.75
2019-06-26T22:44:50.278Z,4.45
2019-06-26T22:47:17.821Z,3.80
2019-06-26T22:49:45.288Z,3.87
2019-06-26T22:52:12.824Z,3.90
2019-06-26T22:54:40.269Z,4.25
2019-06-26T22:57:07.750Z,3.22
2019-06-26T22:59:35.206Z,4.10
2019-06-26T23:02:02.803Z,4.85
2019-06-26T23:04:33.150Z,3.60
2019-06-26T23:09:53.357Z,4.08
2019-06-26T23:12:21.074Z,4.05
2019-06-26T23:14:48.539Z,4.12
2019-06-26T23:17:19.049Z,3.72
2019-06-26T23:22:13.887Z,3.45
2019-06-26T23:24:41.450Z,3.95
2019-06-26T23:27:09.064Z,3.77
2019-06-26T23:29:36.594Z,4.40
2019-06-26T23:32:04.078Z,4.35
2019-06-26T23:34:34.023Z,4.60
2019-06-26T23:37:02.738Z,4.37
2019-06-26T23:39:30.216Z,4.35
2019-06-26T23:41:57.680Z,4.00
2019-06-26T23:44:25.316Z,4.60
2019-06-26T23:47:12.240Z,4.10
2019-06-26T23:49:43.032Z,4.65
2019-06-26T23:52:10.501Z,4.30
2019-06-26T23:54:38.082Z,4.45
2019-06-26T23:57:05.557Z,4.72
2019-06-26T23:59:38.196Z,4.12
